עמוד ראשי
METAR-TAF:

METAR-TAF

שדות תעופה :

Fort Bliss, טקסס, ארצות הברית

קו רוחב: 31-50-58N, קו אורך: 106-22-48W, גובה: 1203מטר

תצפית מזג אוויר נוכחית

הדו"ח נערך לפני 49דקות, בשעה 07:55 UTC
רוח 3קשר מכיוון דרום/דרום-מזרח
טמפרטורת 29 צלסיוס
לחות 9%
לחץ 1012 hPa
ראות: 11.3קילומטר
שמיים נקיים

METAR: KBIF 160755Z 16003KT 7SM CLR 29/M07 A2988 RMK AO2A SLP012 ALSTG/SLP ESTMD WND DATA ESTMD T02911067 $

זמן: 02:44 (08:44 UTC)

תחזית

הדו"ח נערך לפני 5 שעות ו 44דקות, בשעה 03:00 UTC
תחזית בתוקף מ 16 ב 03 UTC עד 17 ב 09 UTC
רוח 6קשר עם כיוונים משתנים
ראות 10 קילומטר או יותר
שמיים נקיים
יעשה מ
16 ב 17 UTC עד 16 ב 18 UTC
רוח 10קשר מכיוון מערב/דרום-מערב עם משבים עד 20קשר
ראות 10 קילומטר או יותר
שמיים נקיים
יעשה מ
17 ב 04 UTC עד 17 ב 05 UTC
רוח 6קשר עם כיוונים משתנים
ראות 10 קילומטר או יותר
שמיים נקיים

TAF: KBIF 160300Z 1603/1709 VRB06KT 9999 SKC QNH2985INS BECMG 1617/1618 24010G20KT 9999 510606 SKC QNH2985INS BECMG 1704/1705 VRB06KT 9999 SKC QNH2978INS TX38/1622Z TN25/1612Z

תצפיות ותחזיות מזג אוויר לגבי יותר מ- 4,000 שדות תעופה ברחבי העולם. דוחות METAR ו- TAF.

התחנות הזמינות מסומנות בנקודות צהובות ואדומות על גבי המפה.

העבר את העכבר לנקודה הצבעונית על מנת לראות את שם התחנה.

לאחר מכן, לחץ כדי לראות את תוכן ואת תחזיות מזג האוויר.

כדי לשנות את המפה: לחץ על הכפתורים הירוקים עם הפלוס השחור כדי להתקרב; על הכפתור הירוק עם המקף כדי להתרחק; או בחיצים הירוקים למפות סמוכות.


METAR-TAF: